Latest Weather Observations for Geraldton Airport

IDW60801

Issued at 3:32 pm WST Saturday 5 September 2015 (issued every 30 minutes, with the page automatically refreshed every 10 minutes)

About weather observations | Map of weather stations | Latest weather observations for WA | Other Formats
Station Details ID: 008315 Name: GERALDTON AIRPORT Lat: -28.80 Lon: 114.70 Height: 29.7 m
Data from the previous 72 hours. | See also: Recent months at Geraldton Airport
Date/Time
WST
Temp
°C
App
Temp
°C
Dew
Point
Rel
Hum
%
Delta-T
°C
Wind Press
QNH
hPa
Press
MSL
hPa
Rain
since 9 am
mm
Dir
 
Spd
km/h
Gust
km/h
Spd
kts
Gust
kts
05/03:30pm 20.1 17.0 11.6 58 4.7 S 19 24 10 13 1022.1 - 0.2
05/03:00pm 19.6 16.1 10.8 56 4.8 S 20 26 11 14 1021.9 1022.0 0.2
05/02:30pm 20.1 15.6 10.0 52 5.4 SSW 24 26 13 14 1021.9 - 0.2
05/02:00pm 20.6 16.8 9.8 50 5.8 S 20 30 11 16 1021.9 - 0.2
05/01:30pm 20.2 16.2 9.2 49 5.8 S 20 32 11 17 1022.1 - 0.2
05/01:00pm 20.7 16.8 9.3 48 6.1 S 20 32 11 17 1022.1 - 0.2
05/12:30pm 20.0 15.2 8.8 48 5.9 SSW 24 39 13 21 1022.3 - 0.2
05/12:00pm 20.5 16.3 8.2 45 6.4 S 20 28 11 15 1022.3 1022.4 0.2
05/11:30am 19.7 16.0 8.1 47 6.0 S 17 26 9 14 1022.4 - 0.2
05/11:00am 19.9 16.0 9.6 51 5.5 S 20 32 11 17 1022.5 - 0.0
05/10:30am 19.7 15.7 10.3 54 5.1 S 22 33 12 18 1022.4 - 0.0
05/10:00am 19.1 14.9 11.0 59 4.4 S 24 32 13 17 1022.4 - 0.0
05/09:30am 18.8 15.5 11.5 62 4.0 S 20 30 11 16 1022.3 - 0.0
05/09:00am 17.7 15.8 14.1 79 2.1 S 17 22 9 12 1022.5 1022.6 2.4
05/08:30am 17.2 15.8 14.4 83 1.6 S 15 20 8 11 1022.4 - 2.4
05/08:00am 16.6 16.6 15.2 91 0.8 SSE 9 11 5 6 1021.8 - 2.4
05/07:30am 16.0 16.4 15.3 96 0.4 SSE 7 9 4 5 1021.3 - 2.4
05/07:00am 15.8 15.4 15.1 96 0.4 S 11 15 6 8 1021.0 - 2.4
05/06:45am 15.8 15.4 15.3 97 0.3 S 11 15 6 8 1020.8 - 2.4
05/06:30am 15.8 15.1 15.3 97 0.3 S 13 17 7 9 1020.7 - 2.4
05/06:08am 15.6 13.7 15.1 97 0.3 SSW 19 24 10 13 1020.4 - 2.4
05/06:00am 15.6 13.6 15.0 96 0.3 SSW 19 26 10 14 1020.3 1020.4 2.2
05/05:33am 16.1 14.3 15.4 96 0.4 SW 19 32 10 17 1019.9 - 0.8
05/05:30am 16.2 15.1 15.4 95 0.5 SW 15 32 8 17 1019.8 - 0.4
05/05:19am 16.8 16.0 15.1 90 1.0 SW 13 19 7 10 1019.5 - 0.2
05/05:00am 16.9 16.1 15.2 90 1.0 WSW 13 19 7 10 1019.4 - 0.2
05/04:30am 16.2 16.5 15.0 93 0.7 W 7 11 4 6 1019.2 - 0.2
05/04:00am 16.1 15.5 14.5 90 0.9 W 11 15 6 8 1018.6 - 0.2
05/03:30am 16.0 15.3 15.4 96 0.3 SW 13 17 7 9 1018.8 - 0.2
05/03:29am 16.0 15.3 15.3 96 0.4 SW 13 19 7 10 1018.7 - 0.2
05/03:10am 16.1 15.0 15.3 95 0.5 SW 15 26 8 14 1019.0 - 0.0
05/03:00am 16.0 14.3 14.8 93 0.7 SW 17 20 9 11 1018.9 1019.0 0.0
05/02:30am 16.2 14.5 12.6 79 2.0 NW 13 19 7 10 1018.9 - 0.0
05/02:00am 15.9 15.4 12.8 82 1.7 NNW 7 11 4 6 1018.4 - 0.0
05/01:30am 14.9 13.6 12.5 85 1.3 N 11 11 6 6 1018.3 - 0.0
05/01:00am 14.4 13.4 12.2 87 1.2 NNE 9 11 5 6 1018.7 - 0.0
05/12:30am 14.4 13.4 12.2 87 1.2 N 9 11 5 6 1019.4 - 0.0
05/12:00am 14.1 12.5 11.7 85 1.3 NNE 11 13 6 7 1019.3 1019.4 0.0
 
Date/Time
WST
Temp
°C
App
Temp
°C
Dew
Point
Rel
Hum
%
Delta-T
°C
Wind Press
QNH
hPa
Press
MSL
hPa
Rain
since 9 am
mm
Dir
 
Spd
km/h
Gust
km/h
Spd
kts
Gust
kts
04/11:30pm 14.4 12.4 11.6 83 1.5 N 13 17 7 9 1019.4 - 0.0
04/11:00pm 14.2 12.1 11.3 83 1.5 NNE 13 17 7 9 1019.4 - 0.0
04/10:30pm 14.2 13.4 11.7 85 1.3 N 7 9 4 5 1020.3 - 0.0
04/10:00pm 14.0 12.7 11.4 84 1.4 NNE 9 13 5 7 1020.0 - 0.0
04/09:30pm 13.5 12.2 11.2 86 1.2 NNE 9 11 5 6 1020.3 - 0.0
04/09:00pm 13.7 12.4 11.1 84 1.4 N 9 11 5 6 1020.4 1020.5 0.0
04/08:30pm 14.0 12.2 11.0 82 1.6 N 11 11 6 6 1020.6 - 0.0
04/08:00pm 13.8 12.4 10.9 83 1.5 NNW 9 11 5 6 1020.2 - 0.0
04/07:30pm 13.5 12.4 10.8 84 1.4 N 7 9 4 5 1019.6 - 0.0
04/07:00pm 14.3 13.0 11.1 81 1.7 N 9 11 5 6 1019.2 - 0.0
04/06:30pm 14.6 13.1 10.6 77 2.1 NW 9 11 5 6 1019.0 - 0.0
04/06:00pm 16.2 13.9 10.6 69 3.0 W 13 15 7 8 1018.9 1019.0 0.0
04/05:30pm 17.5 15.2 10.4 63 3.8 W 13 17 7 9 1018.8 - 0.0
04/05:00pm 18.0 14.4 9.9 59 4.3 WSW 19 24 10 13 1018.6 - 0.0
04/04:30pm 18.8 15.1 10.2 57 4.6 W 20 26 11 14 1018.1 - 0.0
04/04:00pm 19.5 17.3 9.5 52 5.3 W 11 17 6 9 1017.7 - 0.0
04/03:30pm 19.9 17.2 9.1 49 5.7 WSW 13 19 7 10 1017.7 - 0.0
04/03:00pm 20.0 17.4 9.2 49 5.7 WSW 13 20 7 11 1017.8 1017.9 0.0
04/02:30pm 20.0 17.8 9.2 49 5.7 W 11 20 6 11 1017.9 - 0.0
04/02:00pm 19.7 16.6 8.9 49 5.7 W 15 24 8 13 1018.1 - 0.0
04/01:30pm 19.3 16.1 8.6 50 5.6 W 15 22 8 12 1018.4 - 0.0
04/01:00pm 19.9 17.0 9.5 51 5.5 WSW 15 19 8 10 1018.7 - 0.0
04/12:30pm 19.8 16.1 9.4 51 5.5 W 19 28 10 15 1018.9 - 0.0
04/12:00pm 19.1 16.4 9.0 52 5.3 WSW 13 24 7 13 1019.2 1019.3 0.0
04/11:30am 18.9 15.6 9.5 54 5.0 W 17 24 9 13 1019.4 - 0.0
04/11:00am 19.0 16.0 9.3 53 5.1 W 15 22 8 12 1019.7 - 0.0
04/10:30am 18.9 15.6 9.7 55 4.9 SW 17 22 9 12 1019.8 - 0.0
04/10:00am 17.6 15.6 10.3 62 3.9 WNW 11 13 6 7 1019.7 - 0.0
04/09:30am 16.5 15.0 10.7 68 3.1 N 9 13 5 7 1020.0 - 0.0
04/09:00am 13.3 10.2 9.0 75 2.2 NNE 15 19 8 10 1019.9 1020.0 0.0
04/08:30am 10.9 6.6 8.0 82 1.4 NNE 20 24 11 13 1019.7 - 0.0
04/08:00am 8.9 4.6 7.0 88 0.9 NNE 19 26 10 14 1019.5 - 0.0
04/07:30am 6.5 1.8 5.1 91 0.6 NNE 19 24 10 13 1019.1 - 0.0
04/07:00am 5.7 0.7 4.6 93 0.5 NNE 20 22 11 12 1018.8 - 0.0
04/06:30am 5.4 0.4 4.6 95 0.3 NNE 20 24 11 13 1018.3 - 0.0
04/06:00am 5.6 0.6 4.7 94 0.4 NNE 20 24 11 13 1017.8 1017.9 0.0
04/05:30am 5.9 1.2 5.0 94 0.4 NNE 19 22 10 12 1017.3 - 0.0
04/05:00am 5.9 1.2 5.0 94 0.4 NNE 19 20 10 11 1017.2 - 0.0
04/04:30am 6.0 1.3 5.3 95 0.3 NNE 19 20 10 11 1017.0 - 0.0
04/04:00am 6.2 1.5 5.3 94 0.4 NNE 19 22 10 12 1016.9 - 0.0
04/03:30am 6.2 1.5 5.3 94 0.4 NNE 19 22 10 12 1017.1 - 0.0
04/03:00am 6.0 1.7 5.2 95 0.3 NNE 17 19 9 10 1017.5 1017.5 0.0
04/02:30am 6.2 1.9 5.3 94 0.4 NNE 17 20 9 11 1017.6 - 0.0
04/02:00am 6.4 2.2 5.5 94 0.4 NNE 17 20 9 11 1017.8 - 0.0
04/01:30am 6.4 2.2 5.5 94 0.4 NNE 17 19 9 10 1018.1 - 0.0
04/01:00am 6.7 2.9 5.6 93 0.5 NNE 15 17 8 9 1018.2 - 0.0
04/12:30am 6.7 2.5 5.8 94 0.4 NNE 17 19 9 10 1018.6 - 0.0
04/12:00am 6.5 2.3 5.6 94 0.4 NNE 17 19 9 10 1018.8 1018.9 0.0
 
Date/Time
WST
Temp
°C
App
Temp
°C
Dew
Point
Rel
Hum
%
Delta-T
°C
Wind Press
QNH
hPa
Press
MSL
hPa
Rain
since 9 am
mm
Dir
 
Spd
km/h
Gust
km/h
Spd
kts
Gust
kts
03/11:30pm 6.7 3.3 5.8 94 0.4 NNE 13 17 7 9 1019.0 - 0.0
03/11:00pm 6.9 3.5 6.1 95 0.4 NNE 13 15 7 8 1019.3 - 0.0
03/10:30pm 6.9 3.5 6.0 94 0.4 NNE 13 13 7 7 1019.4 - 0.0
03/10:00pm 7.3 4.0 6.3 93 0.5 NNE 13 13 7 7 1019.6 - 0.0
03/09:30pm 7.0 4.4 5.9 93 0.5 NNE 9 11 5 6 1019.7 - 0.0
03/09:00pm 7.0 6.1 5.9 93 0.5 CALM 0 6 0 3 1019.8 1019.9 0.0
03/08:30pm 8.2 7.4 6.5 89 0.8 CALM 0 0 0 0 1019.8 - 0.0
03/08:00pm 9.0 7.9 6.9 87 1.0 S 2 6 1 3 1019.7 - 0.0
03/07:30pm 12.0 10.6 8.7 80 1.6 SSW 6 7 3 4 1019.5 - 0.0
03/07:00pm 13.1 11.7 9.0 76 2.1 SW 6 7 3 4 1019.4 - 0.0
03/06:30pm 13.8 12.4 8.9 72 2.5 SSW 6 7 3 4 1019.0 - 0.0
03/06:00pm 15.0 13.1 9.2 68 3.0 SSW 9 11 5 6 1018.9 1019.0 0.0
03/05:30pm 16.8 13.6 8.5 58 4.2 SSW 15 17 8 9 1018.8 - 0.0
03/05:00pm 17.9 14.5 7.5 50 5.3 S 15 19 8 10 1018.5 - 0.0
03/04:30pm 18.7 14.9 5.9 43 6.3 SSW 15 19 8 10 1018.2 - 0.0
03/04:00pm 19.4 15.2 5.6 40 6.8 S 17 20 9 11 1018.1 - 0.0
03/03:30pm 19.9 15.4 4.0 35 7.6 SSW 17 20 9 11 1017.9 - 0.0
03/03:00pm 19.7 14.9 2.8 32 7.9 SSW 17 22 9 12 1018.0 1018.1 0.0
03/02:30pm 20.3 15.4 1.7 29 8.5 SSW 17 20 9 11 1018.2 - 0.0
03/02:00pm 20.4 15.3 0.6 26 8.9 SSW 17 20 9 11 1018.4 - 0.0
03/01:30pm 20.3 14.9 -1.2 23 9.3 SSW 17 20 9 11 1018.6 - 0.0
03/01:00pm 20.8 15.6 -0.2 24 9.3 WSW 17 22 9 12 1019.0 - 0.0
03/12:30pm 19.9 14.2 -0.7 25 9.0 W 19 26 10 14 1019.5 - 0.0
03/12:00pm 19.8 14.6 2.2 31 8.1 WSW 19 24 10 13 1019.8 1019.9 0.0
03/11:30am 20.3 17.2 0.3 26 8.9 NNW 6 13 3 7 1020.1 - 0.0
03/11:00am 19.0 15.2 1.5 31 7.9 NE 11 13 6 7 1020.3 - 0.0
03/10:30am 17.8 12.4 1.4 33 7.3 NNE 19 22 10 12 1020.6 - 0.0
03/10:00am 16.5 11.6 1.8 37 6.5 NNE 17 24 9 13 1020.7 - 0.0
03/09:30am 14.9 10.9 2.9 44 5.4 NNE 13 19 7 10 1020.8 - 0.0
03/09:00am 12.7 8.1 3.5 53 4.1 NE 17 20 9 11 1020.7 1020.8 0.0
03/08:30am 10.8 5.4 2.6 57 3.5 NE 20 26 11 14 1020.8 - 0.0
03/08:00am 9.2 3.9 2.0 60 3.0 NE 19 24 10 13 1020.8 - 0.0
03/07:30am 7.1 1.9 2.3 71 2.0 NNE 19 22 10 12 1020.5 - 0.0
03/07:00am 5.6 0.3 1.9 77 1.5 NE 19 22 10 12 1020.2 - 0.0
03/06:30am 4.9 -0.4 1.9 81 1.2 NE 19 20 10 11 1020.0 - 0.0
03/06:00am 4.6 -0.7 2.1 84 1.0 NE 19 20 10 11 1019.7 1019.8 0.0
03/05:30am 5.1 -0.1 2.4 83 1.1 NE 19 22 10 12 1019.7 - 0.0
03/05:00am 6.0 0.5 2.0 75 1.6 NE 20 22 11 12 1019.6 - 0.0
03/04:30am 6.7 1.3 2.6 75 1.7 NNE 20 24 11 13 1019.5 - 0.0
03/04:00am 6.8 2.0 2.5 74 1.8 NE 17 20 9 11 1019.8 - 0.0
03/03:30am 5.6 2.0 2.7 81 1.2 NE 11 17 6 9 1020.1 - 0.0
03/03:00am 5.2 2.5 2.8 84 1.0 NNE 6 9 3 5 1020.3 1020.4 0.0
03/02:30am 5.1 2.3 3.0 86 0.9 NE 7 13 4 7 1020.5 - 0.0
03/02:00am 6.5 3.2 2.7 77 1.6 E 9 11 5 6 1020.9 - 0.0
03/01:30am 7.2 3.6 3.1 75 1.7 SE 11 15 6 8 1021.0 - 0.0
03/01:00am 7.6 4.5 3.6 76 1.7 ESE 9 17 5 9 1021.5 - 0.0
03/12:30am 6.7 2.4 3.1 78 1.5 SE 15 20 8 11 1021.5 - 0.0
03/12:00am 6.1 1.3 2.7 79 1.4 SSE 17 17 9 9 1021.8 1021.9 0.0
 
Date/Time
WST
Temp
°C
App
Temp
°C
Dew
Point
Rel
Hum
%
Delta-T
°C
Wind Press
QNH
hPa
Press
MSL
hPa
Rain
since 9 am
mm
Dir
 
Spd
km/h
Gust
km/h
Spd
kts
Gust
kts
02/11:30pm 5.2 1.6 3.0 86 0.9 SSE 11 13 6 7 1022.0 - 0.0
02/11:00pm 5.6 1.7 3.2 84 1.0 SSE 13 17 7 9 1022.3 - 0.0
02/10:30pm 6.0 2.5 3.4 83 1.1 SSE 11 13 6 7 1022.6 - 0.0
02/10:00pm 6.4 3.3 3.6 82 1.2 SSE 9 13 5 7 1022.6 - 0.0
02/09:30pm 6.5 3.0 3.7 82 1.2 SSE 11 13 6 7 1022.5 - 0.0
02/09:00pm 6.7 2.6 4.4 85 1.0 SSE 15 15 8 8 1022.3 1022.4 0.0
02/08:30pm 7.4 3.3 4.4 81 1.3 SSE 15 15 8 8 1022.0 - 0.0
02/08:00pm 7.8 3.8 4.8 81 1.3 SSE 15 15 8 8 1021.8 - 0.0
02/07:30pm 8.8 4.8 4.7 75 1.8 SSE 15 15 8 8 1021.6 - 0.0
02/07:00pm 10.3 6.3 4.8 69 2.5 SSE 15 15 8 8 1021.4 - 0.0
02/06:30pm 12.0 7.9 4.2 59 3.5 SSE 15 17 8 9 1021.0 - 0.0
02/06:00pm 14.2 9.5 3.1 47 5.0 SSE 17 20 9 11 1020.6 1020.7 0.0
02/05:30pm 16.1 10.5 1.5 37 6.4 SE 20 28 11 15 1020.2 - 0.0
02/05:00pm 17.2 11.7 1.8 35 6.9 SE 20 32 11 17 1020.1 - 0.0
02/04:30pm 17.8 12.2 0.0 30 7.7 SE 19 28 10 15 1020.1 - 0.0
02/04:00pm 18.1 13.0 0.6 30 7.7 ESE 17 24 9 13 1020.6 - 0.0

Other Formats:

Comma delimited format used in spreadsheet applications
http://www.bom.gov.au/fwo/IDW60801/IDW60801.94403.axf

JavaScript Object Notation format (JSON) in row-major order
http://www.bom.gov.au/fwo/IDW60801/IDW60801.94403.json